createdAt,value
2022-09-14T00:01:21.137Z,17.50
2022-09-14T00:02:26.246Z,17.50
2022-09-14T00:03:29.187Z,17.50
2022-09-14T00:04:34.887Z,17.50
2022-09-14T00:05:38.399Z,17.50
2022-09-14T00:06:45.258Z,17.40
2022-09-14T00:07:48.160Z,17.40
2022-09-14T00:08:58.560Z,17.40
2022-09-14T00:10:02.324Z,17.40
2022-09-14T00:11:10.365Z,17.40
2022-09-14T00:12:14.523Z,17.40
2022-09-14T00:13:17.030Z,17.40
2022-09-14T00:14:22.316Z,17.40
2022-09-14T00:15:25.798Z,17.40
2022-09-14T00:16:39.846Z,17.40
2022-09-14T00:17:43.974Z,17.30
2022-09-14T00:18:52.509Z,17.30
2022-09-14T00:20:01.002Z,14.50
2022-09-14T00:21:07.958Z,17.30
2022-09-14T00:22:10.806Z,17.20
2022-09-14T00:23:14.752Z,17.30
2022-09-14T00:24:19.807Z,17.20
2022-09-14T00:25:23.418Z,17.20
2022-09-14T00:26:27.121Z,17.20
2022-09-14T00:27:34.913Z,17.20
2022-09-14T00:28:40.206Z,17.20
2022-09-14T00:29:43.674Z,17.20
2022-09-14T00:30:50.530Z,17.10
2022-09-14T00:31:54.363Z,17.10
2022-09-14T00:32:57.816Z,17.10
2022-09-14T00:34:04.708Z,17.10
2022-09-14T00:35:12.055Z,17.10
2022-09-14T00:36:18.998Z,17.00
2022-09-14T00:37:22.583Z,17.00
2022-09-14T00:38:28.683Z,17.00
2022-09-14T00:39:34.099Z,17.00
2022-09-14T00:40:39.706Z,14.90
2022-09-14T00:41:45.963Z,17.00
2022-09-14T00:42:48.460Z,16.90
2022-09-14T00:44:02.558Z,16.80
2022-09-14T00:45:11.571Z,16.90
2022-09-14T00:46:15.392Z,16.20
2022-09-14T00:47:18.504Z,16.80
2022-09-14T00:48:28.430Z,16.80
2022-09-14T00:49:34.854Z,19.20
2022-09-14T00:50:38.378Z,16.60
2022-09-14T00:51:48.181Z,16.60
2022-09-14T00:52:52.533Z,16.50
2022-09-14T00:53:56.014Z,16.40
2022-09-14T00:55:04.118Z,16.40
2022-09-14T00:56:07.403Z,16.40
2022-09-14T00:57:14.391Z,16.30
2022-09-14T00:58:17.915Z,16.30
2022-09-14T00:59:24.427Z,16.30
2022-09-14T01:00:31.934Z,16.30
2022-09-14T01:01:35.349Z,16.20
2022-09-14T01:02:41.482Z,16.20
2022-09-14T01:03:44.124Z,16.10
2022-09-14T01:04:49.379Z,16.10
2022-09-14T01:06:06.560Z,16.10
2022-09-14T01:07:21.113Z,16.10
2022-09-14T01:08:45.069Z,16.10
2022-09-14T01:10:01.300Z,16.20
2022-09-14T01:11:24.390Z,16.20
2022-09-14T01:12:36.125Z,16.10
2022-09-14T01:13:50.256Z,16.20
2022-09-14T01:15:00.899Z,16.20
2022-09-14T01:16:16.567Z,16.10
2022-09-14T01:17:28.835Z,16.10
2022-09-14T01:18:39.164Z,16.10
2022-09-14T01:20:16.842Z,15.10
2022-09-14T01:21:28.402Z,16.10
2022-09-14T01:22:40.396Z,16.10
2022-09-14T01:23:53.203Z,16.10
2022-09-14T01:25:09.190Z,16.20
2022-09-14T01:26:49.095Z,16.10
2022-09-14T01:27:56.922Z,16.20
2022-09-14T01:29:10.299Z,16.10
2022-09-14T01:30:19.901Z,16.20
2022-09-14T01:31:32.491Z,16.20
2022-09-14T01:32:43.582Z,16.20
2022-09-14T01:33:56.029Z,16.20
2022-09-14T01:35:15.672Z,16.20
2022-09-14T01:36:21.754Z,16.20
2022-09-14T01:37:32.165Z,16.20
2022-09-14T01:38:38.351Z,17.70
2022-09-14T01:39:48.000Z,16.20
2022-09-14T01:40:53.009Z,16.20
2022-09-14T01:41:59.452Z,16.20
2022-09-14T01:43:10.975Z,16.20
2022-09-14T01:44:22.927Z,16.20
2022-09-14T01:45:29.854Z,16.10
2022-09-14T01:46:43.028Z,16.20
2022-09-14T01:47:54.389Z,16.20
2022-09-14T01:49:08.118Z,16.20
2022-09-14T01:50:15.267Z,16.20
2022-09-14T01:51:26.525Z,16.20
2022-09-14T01:52:38.040Z,16.20
2022-09-14T01:53:50.513Z,16.20
2022-09-14T01:54:57.858Z,16.20
2022-09-14T01:56:08.377Z,16.20
2022-09-14T01:57:19.142Z,16.20
2022-09-14T01:58:34.202Z,16.20
2022-09-14T01:59:42.189Z,16.10
2022-09-14T02:00:48.422Z,16.20
2022-09-14T02:02:00.468Z,16.20
2022-09-14T02:03:13.961Z,16.20
2022-09-14T02:04:24.101Z,16.20
2022-09-14T02:05:37.144Z,16.30
2022-09-14T02:06:44.554Z,16.30
2022-09-14T02:07:48.685Z,16.30
2022-09-14T02:08:53.882Z,16.30
2022-09-14T02:09:59.516Z,16.30
2022-09-14T02:11:03.252Z,16.30
2022-09-14T02:12:07.373Z,16.30
2022-09-14T02:13:10.046Z,16.30
2022-09-14T02:14:15.002Z,16.30
2022-09-14T02:15:18.187Z,16.20
2022-09-14T02:16:25.014Z,16.20
2022-09-14T02:17:30.003Z,16.30
2022-09-14T02:18:33.617Z,16.30
2022-09-14T02:19:45.248Z,16.20
2022-09-14T02:20:54.314Z,15.10
2022-09-14T02:21:59.957Z,16.20
2022-09-14T02:23:04.009Z,16.30
2022-09-14T02:24:07.726Z,16.30
2022-09-14T02:25:12.051Z,16.20
2022-09-14T02:26:15.613Z,16.30
2022-09-14T02:27:22.376Z,16.30
2022-09-14T02:28:25.175Z,16.30
2022-09-14T02:29:30.408Z,16.30
2022-09-14T02:30:43.948Z,16.30
2022-09-14T02:32:07.243Z,16.30
2022-09-14T02:33:17.532Z,16.30
2022-09-14T02:34:35.048Z,16.30
2022-09-14T02:35:45.467Z,16.40
2022-09-14T02:36:57.083Z,16.40
2022-09-14T02:38:09.046Z,16.40
2022-09-14T02:39:25.058Z,16.40
2022-09-14T02:40:35.676Z,16.40
2022-09-14T02:41:50.073Z,16.50
2022-09-14T02:43:05.686Z,16.50
2022-09-14T02:44:21.975Z,16.50
2022-09-14T02:45:33.478Z,16.50
2022-09-14T02:46:46.431Z,16.50
2022-09-14T02:47:57.433Z,16.40
2022-09-14T02:49:12.681Z,16.50
2022-09-14T02:50:25.082Z,16.50
2022-09-14T02:51:34.871Z,13.90
2022-09-14T02:52:51.119Z,16.50
2022-09-14T02:54:01.982Z,16.50
2022-09-14T02:55:11.032Z,16.60
2022-09-14T02:56:16.823Z,16.60
2022-09-14T02:57:19.556Z,16.60
2022-09-14T02:58:22.896Z,16.60
2022-09-14T02:59:25.592Z,16.30
2022-09-14T03:00:33.039Z,16.60
2022-09-14T03:01:35.691Z,16.60
2022-09-14T03:02:39.668Z,16.60
2022-09-14T03:03:42.781Z,16.70
2022-09-14T03:04:46.737Z,16.70
2022-09-14T03:05:49.076Z,16.70
2022-09-14T03:06:52.471Z,16.60
2022-09-14T03:07:54.838Z,16.60
2022-09-14T03:08:58.657Z,16.70
2022-09-14T03:10:01.258Z,16.70
2022-09-14T03:11:04.800Z,16.70
2022-09-14T03:12:07.364Z,16.70
2022-09-14T03:13:11.768Z,16.80
2022-09-14T03:14:14.663Z,16.80
2022-09-14T03:15:18.360Z,16.80
2022-09-14T03:16:22.194Z,16.80
2022-09-14T03:17:26.092Z,16.80
2022-09-14T03:18:28.978Z,16.80
2022-09-14T03:19:33.005Z,16.80
2022-09-14T03:20:36.798Z,16.80
2022-09-14T03:21:41.675Z,16.70
2022-09-14T03:22:44.234Z,16.70
2022-09-14T03:23:49.582Z,16.70
2022-09-14T03:24:52.063Z,16.70
2022-09-14T03:25:56.296Z,16.70
2022-09-14T03:26:58.758Z,16.70
2022-09-14T03:28:02.146Z,16.60
2022-09-14T03:29:05.957Z,16.70
2022-09-14T03:30:10.952Z,16.70
2022-09-14T03:31:13.777Z,16.60
2022-09-14T03:32:18.452Z,16.60
2022-09-14T03:33:21.964Z,16.60
2022-09-14T03:34:25.428Z,16.60
2022-09-14T03:35:30.783Z,16.60
2022-09-14T03:36:37.928Z,16.70
2022-09-14T03:37:42.368Z,16.70
2022-09-14T03:38:47.450Z,16.70
2022-09-14T03:39:49.814Z,16.70
2022-09-14T03:40:53.212Z,16.70
2022-09-14T03:41:55.695Z,16.60
2022-09-14T03:42:59.498Z,16.50
2022-09-14T03:44:02.464Z,16.50
2022-09-14T03:45:07.302Z,16.40
2022-09-14T03:46:14.398Z,16.50
2022-09-14T03:47:19.473Z,16.40
2022-09-14T03:48:21.813Z,16.50
2022-09-14T03:49:25.334Z,15.90
2022-09-14T03:50:28.216Z,16.50
2022-09-14T03:51:32.019Z,16.40
2022-09-14T03:52:35.058Z,16.40
2022-09-14T03:53:40.057Z,16.40
2022-09-14T03:54:42.787Z,16.40
2022-09-14T03:55:46.205Z,16.40
2022-09-14T03:56:48.610Z,16.30
2022-09-14T03:57:55.840Z,16.30
2022-09-14T03:58:58.208Z,16.30
2022-09-14T04:00:01.814Z,16.30
2022-09-14T04:01:16.192Z,16.30
2022-09-14T04:02:21.264Z,16.30
2022-09-14T04:03:24.119Z,16.30
2022-09-14T04:04:27.465Z,16.30
2022-09-14T04:05:29.975Z,16.30
2022-09-14T04:06:35.608Z,16.30
2022-09-14T04:07:38.253Z,16.30
2022-09-14T04:08:44.320Z,16.30
2022-09-14T04:09:47.210Z,16.30
2022-09-14T04:10:51.206Z,16.30
2022-09-14T04:11:53.834Z,16.30
2022-09-14T04:12:57.134Z,16.20
2022-09-14T04:14:04.047Z,16.20
2022-09-14T04:15:09.164Z,16.20
2022-09-14T04:16:12.190Z,16.20
2022-09-14T04:17:15.833Z,16.20
2022-09-14T04:18:19.708Z,16.20
2022-09-14T04:19:23.412Z,16.20
2022-09-14T04:20:26.033Z,16.20
2022-09-14T04:21:29.378Z,17.40
2022-09-14T04:22:32.336Z,16.30
2022-09-14T04:23:51.373Z,16.30
2022-09-14T04:24:59.713Z,16.30
2022-09-14T04:26:10.958Z,16.30
2022-09-14T04:27:16.653Z,16.40
2022-09-14T04:28:20.973Z,16.40
2022-09-14T04:29:24.295Z,16.30
2022-09-14T04:30:26.913Z,16.30
2022-09-14T04:31:30.459Z,16.30
2022-09-14T04:32:34.586Z,16.30
2022-09-14T04:33:43.086Z,16.40
2022-09-14T04:34:45.722Z,16.40
2022-09-14T04:35:59.005Z,16.40
2022-09-14T04:37:01.453Z,16.30
2022-09-14T04:38:04.951Z,16.40
2022-09-14T04:39:10.750Z,16.40
2022-09-14T04:40:15.144Z,16.50
2022-09-14T04:41:20.826Z,16.50
2022-09-14T04:42:24.187Z,16.50
2022-09-14T04:43:28.111Z,18.80
2022-09-14T04:44:31.895Z,16.50
2022-09-14T04:45:34.272Z,16.60
2022-09-14T04:46:46.950Z,16.70
2022-09-14T04:47:49.408Z,16.60
2022-09-14T04:48:54.152Z,16.70
2022-09-14T04:49:56.678Z,16.80
2022-09-14T04:51:03.382Z,17.00
2022-09-14T04:52:06.159Z,17.00
2022-09-14T04:53:10.325Z,18.00
2022-09-14T04:54:16.017Z,17.10
2022-09-14T04:55:19.664Z,17.10
2022-09-14T04:56:24.186Z,17.10
2022-09-14T04:57:28.327Z,17.10
2022-09-14T04:58:31.007Z,17.00
2022-09-14T04:59:34.902Z,17.00
2022-09-14T05:00:37.250Z,17.00
2022-09-14T05:01:54.013Z,17.00
2022-09-14T05:02:56.478Z,16.90
2022-09-14T05:04:02.211Z,16.90
2022-09-14T05:05:08.984Z,16.90
2022-09-14T05:06:14.980Z,16.90
2022-09-14T05:07:21.408Z,16.80
2022-09-14T05:08:26.842Z,16.90
2022-09-14T05:09:30.413Z,16.80
2022-09-14T05:10:32.732Z,18.00
2022-09-14T05:11:37.835Z,16.90
2022-09-14T05:12:40.581Z,16.90
2022-09-14T05:13:49.711Z,16.90
2022-09-14T05:14:54.214Z,16.90
2022-09-14T05:16:04.581Z,17.00
2022-09-14T05:17:08.144Z,17.00
2022-09-14T05:18:10.873Z,17.00
2022-09-14T05:19:18.335Z,17.00
2022-09-14T05:20:21.087Z,17.00
2022-09-14T05:21:25.739Z,17.00
2022-09-14T05:22:29.074Z,17.00
2022-09-14T05:23:34.613Z,17.00
2022-09-14T05:24:37.897Z,17.00
2022-09-14T05:25:40.638Z,16.90
2022-09-14T05:26:48.417Z,17.00
2022-09-14T05:27:51.138Z,17.00
2022-09-14T05:28:56.863Z,17.00
2022-09-14T05:30:00.781Z,17.00
2022-09-14T05:31:08.939Z,17.00
2022-09-14T05:32:12.770Z,17.00
2022-09-14T05:33:15.052Z,17.00
2022-09-14T05:34:20.451Z,17.00
2022-09-14T05:35:23.117Z,17.00
2022-09-14T05:36:27.482Z,17.00
2022-09-14T05:37:32.089Z,17.10
2022-09-14T05:38:38.218Z,17.10
2022-09-14T05:39:42.103Z,17.20
2022-09-14T05:40:44.813Z,17.30
2022-09-14T05:41:51.535Z,17.30
2022-09-14T05:42:56.986Z,17.30
2022-09-14T05:44:00.685Z,17.40
2022-09-14T05:45:03.861Z,17.40
2022-09-14T05:46:09.737Z,17.40
2022-09-14T05:47:13.136Z,17.40
2022-09-14T05:48:16.148Z,17.50
2022-09-14T05:49:21.082Z,17.50
2022-09-14T05:50:26.401Z,17.40
2022-09-14T05:51:29.941Z,17.40
2022-09-14T05:52:32.266Z,17.40
2022-09-14T05:53:37.119Z,17.20
2022-09-14T05:54:42.531Z,17.10
2022-09-14T05:55:45.217Z,17.10
2022-09-14T05:56:48.681Z,17.10
2022-09-14T05:57:51.481Z,17.00
2022-09-14T05:58:55.633Z,16.90
2022-09-14T05:59:57.953Z,16.90
2022-09-14T06:01:08.199Z,19.20
2022-09-14T06:02:16.332Z,16.80
2022-09-14T06:03:20.565Z,16.70
2022-09-14T06:04:26.042Z,16.70
2022-09-14T06:05:28.488Z,16.70
2022-09-14T06:06:34.266Z,16.70
2022-09-14T06:07:36.710Z,16.60
2022-09-14T06:08:41.777Z,16.60
2022-09-14T06:09:44.381Z,16.60
2022-09-14T06:10:47.902Z,16.60
2022-09-14T06:11:51.494Z,16.60
2022-09-14T06:12:55.584Z,16.60
2022-09-14T06:14:01.890Z,16.60
2022-09-14T06:15:04.734Z,16.70
2022-09-14T06:16:11.477Z,16.60
2022-09-14T06:17:14.636Z,16.60
2022-09-14T06:18:18.047Z,15.20
2022-09-14T06:19:20.415Z,16.60
2022-09-14T06:20:25.449Z,16.70
2022-09-14T06:21:32.335Z,16.70
2022-09-14T06:22:35.700Z,16.60
2022-09-14T06:23:39.787Z,16.60
2022-09-14T06:24:43.078Z,16.60
2022-09-14T06:25:45.384Z,16.60
2022-09-14T06:26:49.024Z,15.30
2022-09-14T06:27:54.167Z,16.50
2022-09-14T06:28:58.366Z,16.50
2022-09-14T06:30:01.223Z,16.50
2022-09-14T06:31:10.021Z,16.60
2022-09-14T06:32:12.399Z,16.60
2022-09-14T06:33:15.907Z,16.50
2022-09-14T06:34:19.586Z,16.60
2022-09-14T06:35:23.433Z,15.80
2022-09-14T06:36:29.516Z,18.10
2022-09-14T06:37:31.802Z,16.70
2022-09-14T06:38:35.361Z,16.60
2022-09-14T06:39:38.287Z,16.00
2022-09-14T06:40:52.107Z,16.60
2022-09-14T06:41:55.490Z,14.90
2022-09-14T06:43:02.317Z,16.60
2022-09-14T06:44:05.663Z,16.50
2022-09-14T06:45:11.260Z,16.60
2022-09-14T06:46:19.302Z,16.60
2022-09-14T06:47:25.404Z,16.60
2022-09-14T06:48:28.931Z,16.60
2022-09-14T06:49:33.747Z,16.60
2022-09-14T06:50:37.828Z,16.50
2022-09-14T06:51:43.607Z,16.60
2022-09-14T06:52:46.329Z,16.60
2022-09-14T06:53:51.167Z,16.60
2022-09-14T06:54:54.590Z,16.60
2022-09-14T06:55:59.767Z,16.60
2022-09-14T06:57:03.671Z,16.70
2022-09-14T06:58:07.978Z,16.70
2022-09-14T06:59:12.992Z,16.70
2022-09-14T07:04:17.454Z,16.80
2022-09-14T07:05:23.160Z,16.80
2022-09-14T07:06:30.272Z,16.90
2022-09-14T07:07:32.460Z,16.70
2022-09-14T07:08:38.337Z,16.60
2022-09-14T07:09:40.555Z,16.50
2022-09-14T07:10:44.396Z,16.60
2022-09-14T07:11:46.850Z,16.60
2022-09-14T07:12:51.231Z,16.70
2022-09-14T07:13:58.764Z,16.60
2022-09-14T07:15:01.219Z,16.60
2022-09-14T07:16:05.438Z,16.60
2022-09-14T07:17:07.712Z,16.60
2022-09-14T07:18:10.952Z,16.70
2022-09-14T07:19:14.734Z,16.60
2022-09-14T07:20:18.016Z,16.60
2022-09-14T07:21:21.272Z,16.70
2022-09-14T07:22:25.786Z,15.10
2022-09-14T07:23:27.932Z,16.90
2022-09-14T07:24:31.146Z,17.10
2022-09-14T07:25:36.363Z,17.10
2022-09-14T07:26:42.515Z,17.30
2022-09-14T07:27:44.824Z,17.40
2022-09-14T07:28:50.123Z,17.60
2022-09-14T07:29:52.340Z,17.80
2022-09-14T07:30:58.915Z,18.00
2022-09-14T07:32:03.379Z,18.20
2022-09-14T07:33:06.090Z,18.40
2022-09-14T07:34:10.512Z,18.60
2022-09-14T07:35:12.767Z,18.70
2022-09-14T07:36:16.700Z,18.90
2022-09-14T07:37:19.047Z,19.00
2022-09-14T07:38:41.546Z,19.30
2022-09-14T07:39:46.903Z,19.40
2022-09-14T07:40:49.301Z,19.60
2022-09-14T07:41:52.597Z,19.70
2022-09-14T07:42:57.738Z,19.80
2022-09-14T07:44:03.404Z,19.80
2022-09-14T07:45:07.640Z,19.70
2022-09-14T07:46:12.236Z,19.60
2022-09-14T07:47:15.639Z,19.60
2022-09-14T07:48:18.019Z,19.60
2022-09-14T07:49:22.148Z,21.10
2022-09-14T07:50:24.461Z,19.70
2022-09-14T07:51:28.919Z,19.80
2022-09-14T07:52:36.697Z,19.90
2022-09-14T07:53:45.791Z,20.00
2022-09-14T07:54:48.015Z,20.20
2022-09-14T07:55:51.253Z,20.40
2022-09-14T07:56:54.146Z,20.40
2022-09-14T07:57:57.778Z,20.60
2022-09-14T07:59:17.582Z,20.70
2022-09-14T08:00:24.607Z,20.80
2022-09-14T08:01:30.410Z,21.00
2022-09-14T08:02:34.771Z,21.20
2022-09-14T08:03:37.023Z,21.40
2022-09-14T08:04:40.427Z,20.70
2022-09-14T08:05:42.946Z,21.60
2022-09-14T08:06:46.394Z,21.70
2022-09-14T08:07:54.056Z,21.80
2022-09-14T08:08:58.773Z,21.80
2022-09-14T08:10:02.383Z,21.80
2022-09-14T08:11:11.613Z,21.90
2022-09-14T08:12:16.213Z,22.00
2022-09-14T08:13:18.762Z,22.10
2022-09-14T08:14:22.277Z,22.60
2022-09-14T08:15:28.438Z,22.30
2022-09-14T08:16:34.459Z,22.30
2022-09-14T08:17:37.705Z,22.30
2022-09-14T08:18:40.248Z,22.40
2022-09-14T08:19:43.886Z,22.50
2022-09-14T08:20:46.834Z,22.60
2022-09-14T08:21:51.163Z,22.70
2022-09-14T08:22:53.524Z,22.80
2022-09-14T08:23:58.987Z,22.80
2022-09-14T08:25:01.154Z,22.80
2022-09-14T08:26:06.174Z,22.80
2022-09-14T08:27:12.295Z,22.80
2022-09-14T08:28:14.631Z,22.80
2022-09-14T08:29:20.003Z,22.80
2022-09-14T08:30:22.172Z,22.90
2022-09-14T08:31:28.116Z,22.70
2022-09-14T08:32:30.251Z,22.80
2022-09-14T08:33:34.938Z,22.90
2022-09-14T08:34:38.363Z,22.80
2022-09-14T08:35:57.522Z,22.90
2022-09-14T08:37:01.894Z,22.90
2022-09-14T08:38:04.089Z,23.00
2022-09-14T08:39:11.135Z,23.10
2022-09-14T08:40:14.180Z,23.10
2022-09-14T08:41:28.770Z,23.10
2022-09-14T08:42:33.320Z,23.10
2022-09-14T08:43:38.811Z,23.20
2022-09-14T08:44:46.010Z,23.10
2022-09-14T08:45:50.716Z,23.10
2022-09-14T08:47:02.976Z,22.80
2022-09-14T08:48:10.514Z,22.80
2022-09-14T08:49:21.944Z,22.80
2022-09-14T08:50:25.563Z,22.50
2022-09-14T08:51:30.073Z,22.40
2022-09-14T08:52:36.429Z,22.20
2022-09-14T08:53:43.610Z,22.10
2022-09-14T08:54:49.892Z,22.00
2022-09-14T08:55:59.535Z,22.00
2022-09-14T08:57:13.566Z,21.90
2022-09-14T08:58:28.005Z,21.90
2022-09-14T08:59:43.739Z,22.00
2022-09-14T09:00:53.544Z,22.10
2022-09-14T09:02:13.132Z,22.20
2022-09-14T09:03:40.907Z,22.40
2022-09-14T09:04:54.185Z,22.50
2022-09-14T09:06:12.866Z,22.60
2022-09-14T09:07:29.739Z,22.60
2022-09-14T09:08:39.488Z,22.60
2022-09-14T09:09:46.286Z,22.60
2022-09-14T09:10:54.477Z,22.70
2022-09-14T09:11:59.041Z,22.70
2022-09-14T09:13:06.918Z,22.70
2022-09-14T09:14:22.653Z,22.50
2022-09-14T09:15:29.735Z,22.50
2022-09-14T09:16:33.340Z,22.50
2022-09-14T09:17:42.387Z,22.50
2022-09-14T09:18:49.286Z,22.40
2022-09-14T09:20:01.784Z,22.50
2022-09-14T09:21:12.566Z,22.40
2022-09-14T09:22:20.716Z,22.40
2022-09-14T09:23:25.981Z,22.40
2022-09-14T09:24:37.221Z,22.40
2022-09-14T09:25:54.016Z,22.30
2022-09-14T09:26:57.143Z,22.10
2022-09-14T09:28:09.814Z,22.00
2022-09-14T09:29:14.374Z,22.00
2022-09-14T09:30:36.091Z,22.10
2022-09-14T09:31:44.331Z,22.50
2022-09-14T09:33:10.729Z,21.80
2022-09-14T09:34:30.286Z,21.70
2022-09-14T09:35:47.778Z,21.60
2022-09-14T09:36:59.135Z,21.80
2022-09-14T09:38:01.826Z,21.60
2022-09-14T09:39:06.685Z,21.70
2022-09-14T09:40:18.004Z,21.80
2022-09-14T09:41:27.253Z,21.80
2022-09-14T09:42:29.574Z,21.90
2022-09-14T09:43:48.767Z,22.00
2022-09-14T09:45:01.306Z,22.10
2022-09-14T09:46:08.778Z,22.30
2022-09-14T09:47:11.381Z,22.40
2022-09-14T09:48:16.282Z,22.40
2022-09-14T09:49:25.433Z,22.40
2022-09-14T09:50:28.532Z,22.50
2022-09-14T09:51:33.877Z,22.50
2022-09-14T09:52:36.304Z,22.50
2022-09-14T09:53:49.633Z,22.60
2022-09-14T09:54:56.021Z,22.60
2022-09-14T09:55:59.335Z,22.60
2022-09-14T09:57:20.630Z,22.60
2022-09-14T09:58:38.702Z,22.70
2022-09-14T09:59:46.490Z,22.60
2022-09-14T10:00:57.263Z,22.50
2022-09-14T10:02:23.960Z,22.50
2022-09-14T10:03:30.468Z,22.50
2022-09-14T10:04:35.332Z,22.40
2022-09-14T10:05:37.692Z,22.40
2022-09-14T10:06:46.537Z,22.40
2022-09-14T10:07:59.044Z,22.40
2022-09-14T10:09:02.371Z,22.40
2022-09-14T10:10:09.141Z,22.80
2022-09-14T10:11:31.629Z,22.60
2022-09-14T10:12:39.398Z,22.50
2022-09-14T10:13:41.763Z,22.50
2022-09-14T10:14:45.198Z,22.60
2022-09-14T10:15:49.011Z,22.50
2022-09-14T10:16:52.885Z,22.50
2022-09-14T10:18:08.624Z,22.50
2022-09-14T10:19:15.592Z,22.60
2022-09-14T10:20:24.927Z,22.60
2022-09-14T10:21:28.083Z,22.70
2022-09-14T10:22:32.134Z,22.70
2022-09-14T10:23:37.623Z,22.80
2022-09-14T10:24:39.984Z,22.70
2022-09-14T10:25:43.508Z,22.60
2022-09-14T10:26:45.668Z,22.20
2022-09-14T10:28:01.229Z,22.50
2022-09-14T10:29:39.078Z,22.40
2022-09-14T10:30:51.323Z,22.10
2022-09-14T10:32:02.192Z,22.00
2022-09-14T10:33:09.808Z,22.00
2022-09-14T10:34:19.335Z,22.10
2022-09-14T10:35:29.550Z,22.10
2022-09-14T10:36:37.247Z,22.10
2022-09-14T10:37:51.149Z,22.40
2022-09-14T10:38:58.643Z,22.00
2022-09-14T10:40:16.434Z,22.00
2022-09-14T10:41:27.218Z,22.80
2022-09-14T10:42:39.092Z,21.90
2022-09-14T10:44:12.060Z,21.90
2022-09-14T10:45:22.599Z,21.90
2022-09-14T10:46:30.881Z,22.10
2022-09-14T10:47:57.964Z,22.10
2022-09-14T10:49:21.571Z,22.20
2022-09-14T10:50:47.666Z,22.10
2022-09-14T10:52:03.773Z,22.10
2022-09-14T10:53:22.993Z,22.00
2022-09-14T10:54:55.724Z,22.10
2022-09-14T10:56:03.952Z,22.10
2022-09-14T10:57:19.104Z,22.10
2022-09-14T10:58:37.038Z,22.10
2022-09-14T10:59:52.363Z,22.20
2022-09-14T11:01:12.621Z,22.20
2022-09-14T11:02:48.020Z,22.20
2022-09-14T11:04:32.951Z,22.40
2022-09-14T11:05:39.163Z,22.50
2022-09-14T11:06:53.472Z,22.60
2022-09-14T11:08:10.041Z,22.60
2022-09-14T11:09:22.772Z,22.70
2022-09-14T11:10:33.955Z,22.70
2022-09-14T11:11:50.243Z,22.90
2022-09-14T11:13:21.247Z,23.00
2022-09-14T11:14:39.454Z,23.10
2022-09-14T11:15:58.230Z,23.20
2022-09-14T11:17:17.459Z,23.30
2022-09-14T11:18:32.451Z,23.20
2022-09-14T11:19:44.395Z,23.20
2022-09-14T11:21:01.936Z,23.20
2022-09-14T11:22:13.036Z,23.20
2022-09-14T11:23:30.721Z,23.20
2022-09-14T11:24:43.123Z,23.30
2022-09-14T11:25:50.514Z,23.30
2022-09-14T11:27:03.040Z,23.40
2022-09-14T11:28:14.281Z,23.50
2022-09-14T11:29:23.443Z,23.30
2022-09-14T11:30:37.212Z,23.30
2022-09-14T11:32:16.775Z,23.10
2022-09-14T11:33:24.543Z,23.10
2022-09-14T11:34:33.452Z,23.10
2022-09-14T11:35:45.159Z,23.20
2022-09-14T11:36:52.742Z,23.00
2022-09-14T11:38:01.531Z,23.00
2022-09-14T11:39:13.523Z,23.00
2022-09-14T11:40:22.974Z,22.90
2022-09-14T11:41:33.479Z,23.00
2022-09-14T11:42:42.994Z,23.70
2022-09-14T11:43:53.422Z,23.00
2022-09-14T11:45:04.083Z,23.30
2022-09-14T11:46:10.215Z,23.00
2022-09-14T11:47:18.891Z,22.90
2022-09-14T11:48:44.059Z,22.90
2022-09-14T11:49:57.780Z,23.00
2022-09-14T11:51:07.241Z,23.00
2022-09-14T11:52:19.697Z,23.00
2022-09-14T11:53:26.828Z,22.90
2022-09-14T11:54:29.347Z,23.00
2022-09-14T11:55:33.355Z,22.90
2022-09-14T11:56:36.234Z,23.00
2022-09-14T11:57:39.959Z,23.00
2022-09-14T11:58:46.624Z,23.00
2022-09-14T11:59:55.033Z,23.10
2022-09-14T12:01:31.976Z,23.10
2022-09-14T12:03:00.930Z,23.10
2022-09-14T12:04:16.695Z,23.20
2022-09-14T12:05:43.427Z,23.20
2022-09-14T12:06:54.670Z,23.30
2022-09-14T12:08:05.006Z,23.20
2022-09-14T12:09:39.837Z,22.70
2022-09-14T12:11:04.416Z,23.20
2022-09-14T12:12:29.067Z,23.10
2022-09-14T12:13:33.097Z,23.10
2022-09-14T12:14:40.346Z,23.00
2022-09-14T12:15:45.176Z,23.00
2022-09-14T12:17:17.680Z,22.80
2022-09-14T12:18:29.524Z,22.60
2022-09-14T12:19:34.130Z,22.50
2022-09-14T12:20:44.160Z,22.40
2022-09-14T12:21:46.393Z,22.40
2022-09-14T12:22:50.765Z,22.50
2022-09-14T12:23:57.996Z,22.40
2022-09-14T12:25:15.845Z,22.60
2022-09-14T12:26:37.281Z,22.60
2022-09-14T12:27:42.724Z,22.60
2022-09-14T12:28:49.141Z,22.60
2022-09-14T12:29:51.462Z,22.50
2022-09-14T12:31:29.603Z,22.50
2022-09-14T12:32:44.334Z,22.50
2022-09-14T12:34:14.544Z,22.40
2022-09-14T12:35:45.104Z,22.40
2022-09-14T12:37:11.932Z,22.40
2022-09-14T12:38:41.076Z,22.40
2022-09-14T12:40:23.846Z,22.30
2022-09-14T12:42:09.610Z,22.40
2022-09-14T12:43:46.064Z,22.40
2022-09-14T12:44:49.245Z,22.40
2022-09-14T12:46:00.926Z,22.30
2022-09-14T12:47:50.192Z,21.60
2022-09-14T12:48:58.744Z,22.20
2022-09-14T12:50:14.476Z,22.20
2022-09-14T12:51:31.322Z,22.00
2022-09-14T12:52:45.785Z,22.40
2022-09-14T12:54:00.542Z,22.50
2022-09-14T12:55:28.054Z,22.60
2022-09-14T12:56:41.618Z,22.60
2022-09-14T12:57:55.605Z,22.70
2022-09-14T12:59:05.428Z,22.70
2022-09-14T13:00:15.754Z,22.70
2022-09-14T13:01:34.820Z,22.70
2022-09-14T13:03:18.960Z,22.20
2022-09-14T13:04:27.911Z,22.80
2022-09-14T13:05:34.564Z,22.80
2022-09-14T13:06:44.923Z,22.90
2022-09-14T13:07:47.299Z,22.90
2022-09-14T13:08:55.208Z,23.00
2022-09-14T13:10:00.710Z,23.00
2022-09-14T13:11:04.379Z,23.10
2022-09-14T13:12:09.968Z,23.30
2022-09-14T13:13:18.565Z,23.20
2022-09-14T13:14:28.599Z,23.40
2022-09-14T13:15:36.968Z,23.40
2022-09-14T13:16:45.413Z,23.20
2022-09-14T13:17:58.838Z,23.00
2022-09-14T13:19:08.077Z,22.80
2022-09-14T13:20:18.430Z,22.70
2022-09-14T13:21:25.384Z,22.60
2022-09-14T13:22:32.007Z,22.50
2022-09-14T13:23:40.275Z,22.40
2022-09-14T13:24:45.577Z,22.50
2022-09-14T13:25:49.200Z,22.60
2022-09-14T13:26:53.412Z,22.70
2022-09-14T13:28:02.678Z,22.80
2022-09-14T13:29:08.634Z,22.90
2022-09-14T13:30:22.032Z,23.00
2022-09-14T13:31:32.064Z,22.80
2022-09-14T13:32:40.126Z,22.70
2022-09-14T13:33:49.944Z,22.60
2022-09-14T13:34:53.006Z,22.70
2022-09-14T13:36:00.265Z,22.60
2022-09-14T13:37:05.635Z,22.50
2022-09-14T13:38:16.591Z,22.40
2022-09-14T13:39:27.737Z,22.30
2022-09-14T13:40:31.254Z,22.00
2022-09-14T13:41:34.930Z,21.90
2022-09-14T13:42:37.608Z,21.80
2022-09-14T13:43:43.383Z,21.70
2022-09-14T13:44:49.950Z,21.50
2022-09-14T13:45:52.879Z,21.40
2022-09-14T13:46:59.845Z,21.40
2022-09-14T13:48:04.104Z,21.40
2022-09-14T13:49:08.900Z,21.40
2022-09-14T13:50:49.227Z,21.40
2022-09-14T13:52:43.560Z,21.20
2022-09-14T13:53:56.373Z,21.30
2022-09-14T13:55:18.184Z,21.30
2022-09-14T13:56:32.136Z,21.20
2022-09-14T13:57:35.139Z,21.20
2022-09-14T13:58:38.346Z,21.20
2022-09-14T14:00:07.342Z,21.20
2022-09-14T14:01:10.975Z,21.20
2022-09-14T14:02:14.845Z,21.20
2022-09-14T14:03:33.812Z,21.20
2022-09-14T14:04:39.595Z,21.20
2022-09-14T14:05:42.773Z,21.20
2022-09-14T14:06:46.145Z,21.20
2022-09-14T14:07:50.792Z,21.20
2022-09-14T14:08:57.979Z,21.20
2022-09-14T14:10:02.032Z,21.20
2022-09-14T14:11:08.372Z,21.20
2022-09-14T14:12:13.036Z,21.20
2022-09-14T14:13:26.761Z,21.20
2022-09-14T14:14:31.398Z,21.20
2022-09-14T14:15:39.678Z,21.10
2022-09-14T14:16:42.830Z,21.10
2022-09-14T14:17:46.237Z,21.10
2022-09-14T14:18:53.537Z,21.10
2022-09-14T14:19:59.220Z,21.10
2022-09-14T14:21:11.353Z,21.20
2022-09-14T14:22:20.270Z,21.10
2022-09-14T14:23:24.786Z,21.10
2022-09-14T14:24:29.517Z,21.10
2022-09-14T14:25:34.464Z,21.20
2022-09-14T14:26:37.848Z,21.30
2022-09-14T14:27:44.376Z,21.40
2022-09-14T14:28:47.705Z,21.50
2022-09-14T14:29:52.281Z,21.50
2022-09-14T14:30:57.102Z,21.60
2022-09-14T14:32:00.632Z,21.60
2022-09-14T14:33:02.963Z,21.60
2022-09-14T14:34:18.802Z,21.70
2022-09-14T14:35:25.094Z,21.80
2022-09-14T14:36:28.485Z,21.90
2022-09-14T14:37:34.210Z,21.90
2022-09-14T14:38:37.889Z,21.80
2022-09-14T14:39:41.394Z,21.80
2022-09-14T14:40:44.945Z,21.90
2022-09-14T14:41:49.799Z,21.90
2022-09-14T14:42:52.791Z,22.00
2022-09-14T14:43:56.331Z,22.10